createdAt,value
2023-02-12T00:01:16.543Z,40.70
2023-02-12T00:03:46.122Z,49.67
2023-02-12T00:06:16.012Z,36.93
2023-02-12T00:08:50.487Z,39.27
2023-02-12T00:11:20.088Z,40.73
2023-02-12T00:13:46.908Z,49.00
2023-02-12T00:16:19.376Z,38.53
2023-02-12T00:18:46.634Z,39.20
2023-02-12T00:21:17.295Z,40.37
2023-02-12T00:23:46.581Z,41.17
2023-02-12T00:26:18.539Z,39.30
2023-02-12T00:28:47.808Z,42.20
2023-02-12T00:31:28.132Z,36.33
2023-02-12T00:33:55.053Z,36.13
2023-02-12T00:36:24.891Z,43.57
2023-02-12T00:38:54.309Z,47.57
2023-02-12T00:41:21.968Z,35.47
2023-02-12T00:43:49.083Z,43.43
2023-02-12T00:46:15.923Z,44.67
2023-02-12T00:48:42.549Z,41.43
2023-02-12T00:51:09.535Z,39.20
2023-02-12T00:53:36.145Z,39.93
2023-02-12T00:56:03.185Z,33.93
2023-02-12T00:58:29.627Z,34.07
2023-02-12T01:00:56.626Z,40.53
2023-02-12T01:03:23.329Z,44.13
2023-02-12T01:05:50.036Z,40.03
2023-02-12T01:08:19.228Z,42.93
2023-02-12T01:10:59.300Z,37.17
2023-02-12T01:13:27.078Z,39.30
2023-02-12T01:16:18.272Z,40.10
2023-02-12T01:18:49.349Z,44.10
2023-02-12T01:21:24.562Z,39.73
2023-02-12T01:23:51.336Z,41.97
2023-02-12T01:26:20.010Z,37.07
2023-02-12T01:28:52.941Z,41.20
2023-02-12T01:31:27.936Z,38.73
2023-02-12T01:33:56.880Z,37.40
2023-02-12T01:36:24.654Z,39.77
2023-02-12T01:38:51.555Z,39.43
2023-02-12T01:41:26.501Z,37.37
2023-02-12T01:44:14.165Z,39.33
2023-02-12T01:46:42.025Z,40.90
2023-02-12T01:49:36.232Z,43.50
2023-02-12T01:52:05.364Z,41.27
2023-02-12T01:54:35.169Z,34.97
2023-02-12T01:57:04.802Z,41.27
2023-02-12T01:59:32.468Z,42.80
2023-02-12T02:01:59.052Z,36.67
2023-02-12T02:04:29.715Z,38.27
2023-02-12T02:07:01.247Z,36.87
2023-02-12T02:09:30.154Z,46.13
2023-02-12T02:12:15.111Z,39.83
2023-02-12T02:14:42.175Z,41.23
2023-02-12T02:17:21.151Z,42.30
2023-02-12T02:20:12.456Z,37.57
2023-02-12T02:22:54.035Z,45.40
2023-02-12T02:25:51.264Z,45.93
2023-02-12T02:28:42.604Z,34.77
2023-02-12T02:31:23.550Z,42.43
2023-02-12T02:34:12.383Z,48.83
2023-02-12T02:37:00.549Z,42.73
2023-02-12T02:39:30.694Z,45.00
2023-02-12T02:42:22.946Z,41.47
2023-02-12T02:45:12.538Z,35.87
2023-02-12T02:47:58.329Z,34.20
2023-02-12T02:50:30.488Z,44.10
2023-02-12T02:53:02.668Z,41.63
2023-02-12T02:55:36.915Z,40.00
2023-02-12T02:58:13.515Z,45.53
2023-02-12T03:01:06.977Z,42.03
2023-02-12T03:03:39.988Z,46.87
2023-02-12T03:06:13.004Z,43.83
2023-02-12T03:08:46.364Z,42.50
2023-02-12T03:11:19.659Z,44.73
2023-02-12T03:13:55.882Z,44.83
2023-02-12T03:16:27.727Z,36.80
2023-02-12T03:19:12.016Z,40.90
2023-02-12T03:21:49.049Z,43.00
2023-02-12T03:24:25.420Z,41.23
2023-02-12T03:26:58.078Z,43.10
2023-02-12T03:29:27.498Z,43.97
2023-02-12T03:32:17.458Z,45.97
2023-02-12T03:35:02.030Z,40.40
2023-02-12T03:37:40.600Z,52.83
2023-02-12T03:40:19.296Z,41.50
2023-02-12T03:42:57.488Z,37.50
2023-02-12T03:45:50.291Z,51.20
2023-02-12T03:48:36.546Z,52.37
2023-02-12T03:51:41.583Z,47.47
2023-02-12T03:54:10.646Z,43.13
2023-02-12T03:56:52.773Z,48.83
2023-02-12T03:59:21.113Z,47.03
2023-02-12T04:01:49.555Z,44.73
2023-02-12T04:04:17.237Z,42.73
2023-02-12T04:06:45.198Z,39.97
2023-02-12T04:09:13.266Z,41.73
2023-02-12T04:12:04.346Z,39.10
2023-02-12T04:14:52.949Z,44.43
2023-02-12T04:17:36.500Z,45.17
2023-02-12T04:20:24.212Z,41.27
2023-02-12T04:23:09.535Z,35.03
2023-02-12T04:25:49.104Z,37.83
2023-02-12T04:28:23.952Z,39.40
2023-02-12T04:31:00.399Z,44.37
2023-02-12T04:33:37.577Z,40.17
2023-02-12T04:36:13.625Z,39.80
2023-02-12T04:39:17.351Z,39.40
2023-02-12T04:41:43.833Z,42.57
2023-02-12T04:44:15.369Z,37.17
2023-02-12T04:46:41.820Z,42.97
2023-02-12T04:49:14.119Z,39.57
2023-02-12T04:51:40.626Z,38.63
2023-02-12T04:54:10.185Z,32.93
2023-02-12T04:56:36.708Z,34.63
2023-02-12T04:59:03.570Z,35.33
2023-02-12T05:01:31.551Z,37.60
2023-02-12T05:04:01.521Z,34.77
2023-02-12T05:06:31.915Z,33.10
2023-02-12T05:09:03.362Z,35.00
2023-02-12T05:11:30.266Z,35.80
2023-02-12T05:13:57.032Z,28.53
2023-02-12T05:16:24.649Z,34.60
2023-02-12T05:18:51.179Z,37.63
2023-02-12T05:21:17.942Z,37.13
2023-02-12T05:23:44.508Z,33.77
2023-02-12T05:26:14.959Z,37.40
2023-02-12T05:28:41.776Z,35.87
2023-02-12T05:31:10.907Z,36.97
2023-02-12T05:33:37.443Z,43.47
2023-02-12T05:36:10.402Z,50.40
2023-02-12T05:38:36.962Z,39.27
2023-02-12T05:41:09.244Z,42.10
2023-02-12T05:43:36.343Z,40.60
2023-02-12T05:46:04.931Z,45.30
2023-02-12T05:48:34.915Z,40.83
2023-02-12T05:51:23.221Z,36.87
2023-02-12T05:53:52.315Z,41.23
2023-02-12T05:56:22.318Z,39.37
2023-02-12T05:58:53.929Z,37.80
2023-02-12T06:01:24.356Z,47.97
2023-02-12T06:03:51.153Z,41.50
2023-02-12T06:06:17.732Z,36.87
2023-02-12T06:08:44.314Z,45.43
2023-02-12T06:11:13.856Z,42.20
2023-02-12T06:13:40.366Z,39.67
2023-02-12T06:16:07.550Z,38.93
2023-02-12T06:18:36.897Z,38.03
2023-02-12T06:21:04.255Z,35.77
2023-02-12T06:23:33.480Z,34.20
2023-02-12T06:26:02.657Z,39.53
2023-02-12T06:28:29.243Z,35.03
2023-02-12T06:30:55.998Z,32.93
2023-02-12T06:33:22.447Z,34.53
2023-02-12T06:35:48.957Z,37.30
2023-02-12T06:38:15.476Z,34.00
2023-02-12T06:40:42.080Z,33.60
2023-02-12T06:43:08.786Z,35.57
2023-02-12T06:45:35.586Z,41.27
2023-02-12T06:48:02.095Z,45.63
2023-02-12T06:50:30.999Z,42.00
2023-02-12T06:53:01.233Z,41.20
2023-02-12T06:55:27.714Z,41.33
2023-02-12T06:57:54.278Z,46.03
2023-02-12T07:00:21.485Z,45.00
2023-02-12T07:02:53.536Z,44.60
2023-02-12T07:05:20.401Z,43.27
2023-02-12T07:07:46.954Z,44.37
2023-02-12T07:10:13.461Z,45.50
2023-02-12T07:12:40.013Z,43.47
2023-02-12T07:15:06.951Z,49.73
2023-02-12T07:17:33.476Z,51.87
2023-02-12T07:20:02.982Z,53.50
2023-02-12T07:22:30.897Z,46.73
2023-02-12T07:24:57.394Z,50.53
2023-02-12T07:27:23.914Z,51.43
2023-02-12T07:29:50.477Z,45.97
2023-02-12T07:32:17.091Z,50.40
2023-02-12T07:34:43.642Z,52.27
2023-02-12T07:37:10.072Z,50.53
2023-02-12T07:39:36.510Z,49.10
2023-02-12T07:42:02.961Z,45.93
2023-02-12T07:44:32.453Z,52.80
2023-02-12T07:47:01.142Z,47.27
2023-02-12T07:49:27.708Z,40.80
2023-02-12T07:51:56.805Z,50.17
2023-02-12T07:54:23.434Z,46.00
2023-02-12T07:56:50.897Z,38.40
2023-02-12T07:59:18.820Z,43.37
2023-02-12T08:01:52.962Z,41.27
2023-02-12T08:04:22.335Z,37.13
2023-02-12T08:06:51.417Z,38.43
2023-02-12T08:09:21.810Z,40.20
2023-02-12T08:11:48.362Z,42.47
2023-02-12T08:14:17.711Z,42.93
2023-02-12T08:16:45.294Z,39.83
2023-02-12T08:19:19.457Z,35.30
2023-02-12T08:21:49.705Z,33.07
2023-02-12T08:24:16.299Z,32.90
2023-02-12T08:26:42.938Z,31.57
2023-02-12T08:29:12.331Z,39.70
2023-02-12T08:31:42.948Z,31.97
2023-02-12T08:34:21.711Z,31.83
2023-02-12T08:36:50.709Z,28.60
2023-02-12T08:39:18.941Z,29.40
2023-02-12T08:41:46.328Z,31.30
2023-02-12T08:44:13.959Z,30.77
2023-02-12T08:46:46.120Z,31.87
2023-02-12T08:49:16.837Z,32.40
2023-02-12T08:51:48.661Z,33.90
2023-02-12T08:54:19.306Z,41.70
2023-02-12T08:56:46.404Z,34.20
2023-02-12T08:59:15.303Z,39.03
2023-02-12T09:01:42.820Z,43.37
2023-02-12T09:04:18.466Z,35.37
2023-02-12T09:06:46.016Z,33.87
2023-02-12T09:09:12.737Z,32.17
2023-02-12T09:11:39.428Z,33.10
2023-02-12T09:14:09.146Z,30.80
2023-02-12T09:16:37.118Z,32.43
2023-02-12T09:19:04.416Z,30.63
2023-02-12T09:21:30.965Z,31.87
2023-02-12T09:23:57.478Z,35.43
2023-02-12T09:26:28.168Z,30.27
2023-02-12T09:28:55.349Z,37.57
2023-02-12T09:31:27.978Z,30.90
2023-02-12T09:34:00.518Z,32.77
2023-02-12T09:36:27.717Z,31.02
2023-02-12T09:38:54.421Z,28.45
2023-02-12T09:41:42.643Z,25.20
2023-02-12T09:44:12.039Z,30.77
2023-02-12T09:46:44.519Z,25.50
2023-02-12T09:49:19.130Z,34.05
2023-02-12T09:51:51.588Z,23.77
2023-02-12T09:54:20.840Z,30.08
2023-02-12T09:56:57.227Z,34.67
2023-02-12T09:59:45.006Z,25.98
2023-02-12T10:02:16.438Z,24.10
2023-02-12T10:04:59.811Z,26.20
2023-02-12T10:07:45.772Z,23.77
2023-02-12T10:10:18.279Z,20.75
2023-02-12T10:13:31.120Z,24.63
2023-02-12T10:16:17.015Z,23.25
2023-02-12T10:19:14.296Z,27.85
2023-02-12T10:21:56.096Z,23.35
2023-02-12T10:24:49.261Z,23.05
2023-02-12T10:27:18.803Z,25.77
2023-02-12T10:29:47.293Z,24.88
2023-02-12T10:32:22.935Z,24.85
2023-02-12T10:34:51.459Z,23.85
2023-02-12T10:37:40.221Z,24.20
2023-02-12T10:40:17.972Z,24.48
2023-02-12T10:42:49.775Z,23.05
2023-02-12T10:45:21.542Z,24.13
2023-02-12T10:47:53.139Z,24.52
2023-02-12T10:50:48.790Z,22.60
2023-02-12T10:53:45.633Z,26.45
2023-02-12T10:56:14.870Z,25.20
2023-02-12T10:58:50.202Z,22.35
2023-02-12T11:01:18.109Z,26.58
2023-02-12T11:03:44.615Z,22.27
2023-02-12T11:06:17.404Z,24.50
2023-02-12T11:08:44.851Z,23.42
2023-02-12T11:11:26.218Z,19.50
2023-02-12T11:14:06.590Z,21.45
2023-02-12T11:16:36.884Z,25.83
2023-02-12T11:19:06.314Z,21.60
2023-02-12T11:21:34.598Z,25.08
2023-02-12T11:24:32.115Z,19.88
2023-02-12T11:27:16.718Z,22.55
2023-02-12T11:29:44.661Z,23.58
2023-02-12T11:32:19.385Z,22.38
2023-02-12T11:35:13.358Z,26.58
2023-02-12T11:37:42.202Z,27.05
2023-02-12T11:40:36.378Z,24.23
2023-02-12T11:43:06.343Z,23.48
2023-02-12T11:45:38.030Z,29.27
2023-02-12T11:48:23.232Z,24.95
2023-02-12T11:50:53.986Z,24.63
2023-02-12T11:53:25.993Z,30.42
2023-02-12T11:56:05.331Z,25.73
2023-02-12T11:58:35.159Z,30.65
2023-02-12T12:01:17.008Z,27.38
2023-02-12T12:03:55.737Z,29.33
2023-02-12T12:06:22.183Z,24.60
2023-02-12T12:08:56.084Z,24.58
2023-02-12T12:11:33.403Z,23.08
2023-02-12T12:14:26.014Z,26.27
2023-02-12T12:17:33.522Z,28.02
2023-02-12T12:20:11.302Z,27.90
2023-02-12T12:23:15.416Z,28.48
2023-02-12T12:26:17.200Z,25.17
2023-02-12T12:28:51.367Z,25.67
2023-02-12T12:31:25.725Z,26.65
2023-02-12T12:34:04.170Z,27.40
2023-02-12T12:36:51.923Z,25.48
2023-02-12T12:39:44.406Z,24.65
2023-02-12T12:42:48.357Z,24.38
2023-02-12T12:45:40.129Z,25.42
2023-02-12T12:48:17.941Z,25.55
2023-02-12T12:51:30.316Z,25.33
2023-02-12T12:54:05.491Z,25.90
2023-02-12T12:57:00.665Z,25.60
2023-02-12T12:59:31.073Z,25.88
2023-02-12T13:02:03.797Z,26.38
2023-02-12T13:04:42.620Z,27.33
2023-02-12T13:07:37.705Z,24.27
2023-02-12T13:10:35.148Z,28.23
2023-02-12T13:13:41.725Z,29.05
2023-02-12T13:16:33.767Z,28.17
2023-02-12T13:19:16.689Z,29.73
2023-02-12T13:22:12.795Z,25.10
2023-02-12T13:24:49.797Z,29.33
2023-02-12T13:27:24.656Z,25.13
2023-02-12T13:30:21.926Z,28.15
2023-02-12T13:33:01.542Z,31.45
2023-02-12T13:35:31.096Z,31.80
2023-02-12T13:38:01.432Z,29.17
2023-02-12T13:40:32.654Z,32.13
2023-02-12T13:43:23.974Z,28.67
2023-02-12T13:46:12.549Z,27.75
2023-02-12T13:48:50.954Z,32.25
2023-02-12T13:51:36.142Z,30.38
2023-02-12T13:55:02.073Z,34.20
2023-02-12T13:57:28.556Z,36.85
2023-02-12T13:59:58.135Z,31.85
2023-02-12T14:02:42.683Z,34.13
2023-02-12T14:05:25.253Z,31.67
2023-02-12T14:07:55.414Z,38.78
2023-02-12T14:10:34.297Z,32.75
2023-02-12T14:13:22.762Z,31.48
2023-02-12T14:15:55.658Z,28.05
2023-02-12T14:18:36.856Z,28.23
2023-02-12T14:21:09.152Z,32.40
2023-02-12T14:23:35.808Z,32.00
2023-02-12T14:26:04.163Z,34.58
2023-02-12T14:28:52.205Z,38.85
2023-02-12T14:31:18.894Z,40.70
2023-02-12T14:34:05.710Z,33.22
2023-02-12T14:36:34.847Z,39.47
2023-02-12T14:39:19.410Z,39.28
2023-02-12T14:42:08.300Z,42.40
2023-02-12T14:45:07.337Z,44.58
2023-02-12T14:47:39.785Z,41.80
2023-02-12T14:50:21.434Z,41.13
2023-02-12T14:52:53.315Z,43.95
2023-02-12T14:55:24.248Z,46.75
2023-02-12T14:57:55.116Z,39.63
2023-02-12T15:00:28.134Z,37.15
2023-02-12T15:02:54.644Z,34.15
2023-02-12T15:05:28.318Z,32.83
2023-02-12T15:08:00.515Z,45.03
2023-02-12T15:10:39.245Z,45.08
2023-02-12T15:13:24.536Z,39.72
2023-02-12T15:15:58.047Z,38.72
2023-02-12T15:18:27.558Z,38.28
2023-02-12T15:21:02.616Z,36.55
2023-02-12T15:23:45.822Z,42.35
2023-02-12T15:26:16.839Z,36.85
2023-02-12T15:28:47.194Z,35.47
2023-02-12T15:31:18.158Z,32.78
2023-02-12T15:33:48.414Z,37.55
2023-02-12T15:36:24.282Z,37.90
2023-02-12T15:38:57.555Z,36.28
2023-02-12T15:41:33.188Z,34.55
2023-02-12T15:44:25.640Z,35.75
2023-02-12T15:46:58.315Z,34.25
2023-02-12T15:49:35.044Z,34.13
2023-02-12T15:52:07.256Z,33.17
2023-02-12T15:54:36.881Z,40.53
2023-02-12T15:57:10.396Z,41.55
2023-02-12T15:59:37.047Z,32.90
2023-02-12T16:02:17.240Z,34.72
2023-02-12T16:04:44.886Z,36.60
2023-02-12T16:07:13.307Z,34.97
2023-02-12T16:09:41.743Z,37.58
2023-02-12T16:12:14.564Z,32.83
2023-02-12T16:14:53.890Z,32.10
2023-02-12T16:17:20.283Z,36.70
2023-02-12T16:19:59.662Z,37.22
2023-02-12T16:22:36.185Z,33.50
2023-02-12T16:25:05.297Z,32.35
2023-02-12T16:27:35.162Z,35.92
2023-02-12T16:30:22.738Z,42.22
2023-02-12T16:32:49.640Z,35.35
2023-02-12T16:35:16.006Z,38.20
2023-02-12T16:37:51.201Z,39.08
2023-02-12T16:40:21.811Z,37.95
2023-02-12T16:42:48.198Z,35.10
2023-02-12T16:45:26.948Z,44.03
2023-02-12T16:48:09.093Z,40.47
2023-02-12T16:50:45.968Z,41.78
2023-02-12T16:53:43.562Z,37.58
2023-02-12T16:56:18.379Z,38.80
2023-02-12T16:58:46.940Z,48.47
2023-02-12T17:01:22.317Z,40.20
2023-02-12T17:03:50.606Z,42.03
2023-02-12T17:06:22.864Z,38.67
2023-02-12T17:08:49.520Z,37.47
2023-02-12T17:11:17.757Z,40.38
2023-02-12T17:13:45.927Z,36.10
2023-02-12T17:16:18.875Z,35.95
2023-02-12T17:18:55.116Z,41.78
2023-02-12T17:21:25.913Z,37.70
2023-02-12T17:23:54.249Z,40.63
2023-02-12T17:26:22.071Z,41.90
2023-02-12T17:28:48.924Z,38.88
2023-02-12T17:31:15.575Z,39.78
2023-02-12T17:33:42.074Z,39.45
2023-02-12T17:36:09.070Z,37.33
2023-02-12T17:38:37.950Z,39.83
2023-02-12T17:41:10.944Z,36.50
2023-02-12T17:43:37.624Z,40.13
2023-02-12T17:46:18.610Z,37.15
2023-02-12T17:48:45.192Z,34.13
2023-02-12T17:51:11.996Z,36.50
2023-02-12T17:53:39.950Z,41.00
2023-02-12T17:56:14.294Z,43.10
2023-02-12T17:58:42.300Z,42.58
2023-02-12T18:01:11.475Z,36.47
2023-02-12T18:03:41.108Z,35.65
2023-02-12T18:06:08.722Z,39.97
2023-02-12T18:08:35.467Z,37.42
2023-02-12T18:11:10.156Z,39.60
2023-02-12T18:13:37.962Z,40.35
2023-02-12T18:16:09.486Z,40.67
2023-02-12T18:18:37.398Z,45.70
2023-02-12T18:21:08.866Z,37.20
2023-02-12T18:23:35.562Z,43.67
2023-02-12T18:26:09.867Z,38.85
2023-02-12T18:28:46.922Z,36.03
2023-02-12T18:31:14.342Z,38.58
2023-02-12T18:33:52.331Z,43.00
2023-02-12T18:36:20.246Z,36.80
2023-02-12T18:38:49.988Z,41.00
2023-02-12T18:41:19.940Z,43.95
2023-02-12T18:43:47.055Z,43.10
2023-02-12T18:46:17.043Z,35.80
2023-02-12T18:48:43.944Z,45.50
2023-02-12T18:51:14.573Z,42.83
2023-02-12T18:53:41.207Z,38.53
2023-02-12T18:56:12.763Z,41.33
2023-02-12T18:58:42.257Z,47.75
2023-02-12T19:01:59.618Z,47.27
2023-02-12T19:04:27.935Z,46.58
2023-02-12T19:07:17.113Z,46.30
2023-02-12T19:09:57.036Z,41.07
2023-02-12T19:12:27.917Z,39.47
2023-02-12T19:18:16.652Z,42.67
2023-02-12T19:20:43.594Z,38.67
2023-02-12T19:23:10.364Z,45.97
2023-02-12T19:25:42.881Z,42.23
2023-02-12T19:28:11.032Z,44.70
2023-02-12T19:30:40.691Z,38.23
2023-02-12T19:33:08.333Z,45.30
2023-02-12T19:35:37.213Z,37.83
2023-02-12T19:38:03.718Z,37.60
2023-02-12T19:40:30.327Z,37.17
2023-02-12T19:42:56.763Z,43.17
2023-02-12T19:45:23.286Z,43.10
2023-02-12T19:47:52.285Z,44.03
2023-02-12T19:50:18.843Z,44.53
2023-02-12T19:52:45.423Z,38.47
2023-02-12T19:55:11.898Z,41.70
2023-02-12T19:57:38.556Z,40.30
2023-02-12T20:00:07.211Z,45.03
2023-02-12T20:02:38.188Z,41.20
2023-02-12T20:05:25.784Z,43.90
2023-02-12T20:07:52.243Z,43.33
2023-02-12T20:10:20.193Z,41.50
2023-02-12T20:12:46.722Z,50.87
2023-02-12T20:15:13.195Z,39.57
2023-02-12T20:17:39.724Z,40.57
2023-02-12T20:20:43.363Z,43.60
2023-02-12T20:24:24.012Z,43.67
2023-02-12T20:26:50.725Z,46.30
2023-02-12T20:29:17.272Z,48.37
2023-02-12T20:31:45.158Z,45.30
2023-02-12T20:34:14.801Z,48.70
2023-02-12T20:36:45.633Z,47.60
2023-02-12T20:39:14.789Z,44.90
2023-02-12T20:41:42.337Z,49.80
2023-02-12T20:44:13.005Z,51.90
2023-02-12T20:46:41.770Z,45.53
2023-02-12T20:49:10.683Z,56.77
2023-02-12T20:51:40.425Z,52.00
2023-02-12T20:54:10.586Z,46.17
2023-02-12T20:56:39.822Z,51.10
2023-02-12T20:59:10.467Z,42.30
2023-02-12T21:01:41.559Z,43.23
2023-02-12T21:04:15.328Z,53.57
2023-02-12T21:06:42.046Z,54.63
2023-02-12T21:09:10.396Z,45.27
2023-02-12T21:11:42.137Z,56.33
2023-02-12T21:14:21.922Z,47.77
2023-02-12T21:16:49.918Z,51.20
2023-02-12T21:19:18.103Z,53.27
2023-02-12T21:21:45.501Z,46.37
2023-02-12T21:24:15.440Z,52.93
2023-02-12T21:26:41.934Z,49.27
2023-02-12T21:29:11.455Z,51.13
2023-02-12T21:31:43.859Z,52.87
2023-02-12T21:34:17.532Z,48.03
2023-02-12T21:36:46.208Z,50.93
2023-02-12T21:39:16.551Z,58.00
2023-02-12T21:41:43.657Z,53.67
2023-02-12T21:44:15.728Z,50.40
2023-02-12T21:46:43.048Z,62.07
2023-02-12T21:49:14.412Z,59.63
2023-02-12T21:51:45.067Z,50.63
2023-02-12T21:54:17.555Z,53.20
2023-02-12T21:56:45.630Z,55.70
2023-02-12T21:59:12.866Z,48.83
2023-02-12T22:01:43.337Z,53.33
2023-02-12T22:04:13.967Z,56.33
2023-02-12T22:06:45.974Z,57.37
2023-02-12T22:09:14.783Z,48.47
2023-02-12T22:11:42.961Z,49.87
2023-02-12T22:14:15.024Z,61.47
2023-02-12T22:16:42.618Z,60.27
2023-02-12T22:19:12.381Z,56.80
2023-02-12T22:21:44.539Z,52.67
2023-02-12T22:24:15.979Z,54.43
2023-02-12T22:26:45.141Z,59.83
2023-02-12T22:29:15.486Z,55.27
2023-02-12T22:31:45.195Z,52.63
2023-02-12T22:34:17.391Z,52.40
2023-02-12T22:36:45.026Z,58.10
2023-02-12T22:39:15.496Z,53.63
2023-02-12T22:41:45.444Z,55.07
2023-02-12T22:44:15.985Z,57.10
2023-02-12T22:46:45.660Z,52.10
2023-02-12T22:49:14.322Z,57.37
2023-02-12T22:51:40.819Z,51.03
2023-02-12T22:54:14.375Z,53.63
2023-02-12T22:56:44.276Z,58.83
2023-02-12T22:59:16.040Z,58.90
2023-02-12T23:01:44.521Z,58.33
2023-02-12T23:04:15.742Z,56.77
2023-02-12T23:06:45.718Z,60.93
2023-02-12T23:09:19.146Z,57.23
2023-02-12T23:11:46.410Z,61.33
2023-02-12T23:14:15.439Z,51.23
2023-02-12T23:16:41.990Z,52.00
2023-02-12T23:19:10.302Z,47.00
2023-02-12T23:21:36.805Z,51.50
2023-02-12T23:24:03.410Z,55.67
2023-02-12T23:26:30.394Z,60.10
2023-02-12T23:28:57.717Z,52.40
2023-02-12T23:31:25.045Z,49.53
2023-02-12T23:33:51.602Z,49.93
2023-02-12T23:36:18.237Z,51.43
2023-02-12T23:38:48.697Z,54.07
2023-02-12T23:41:18.773Z,49.77
2023-02-12T23:43:48.286Z,50.13
2023-02-12T23:46:16.906Z,47.27
2023-02-12T23:48:46.598Z,43.70
2023-02-12T23:51:13.138Z,46.90
2023-02-12T23:53:39.643Z,49.93
2023-02-12T23:56:07.004Z,50.03
2023-02-12T23:58:33.453Z,49.07
